Time;durP1;ratioP1;P1;durP2;ratioP2;P2;SDS_P1;SDS_P2;PMS_P1;PMS_P2;Temp;Humidity;BMP_temperature;BMP_pressure;BME280_temperature;BME280_humidity;BME280_pressure;Samples;Min_cycle;Max_cycle;Signal;HPM_P1;HPM_P2
2021/12/31 00:01:28;;;;;;;0.83;0.83;;;17.00;70.10;;;;;;4968211;28;45000;-69
2021/12/31 00:03:58;;;;;;;0.87;0.87;;;17.00;70.20;;;;;;4968372;28;43334;-69
2021/12/31 00:06:26;;;;;;;0.80;0.80;;;17.00;70.30;;;;;;4968596;28;43313;-68
2021/12/31 00:08:54;;;;;;;0.90;0.90;;;17.00;70.30;;;;;;4962496;28;44096;-69
2021/12/31 00:11:21;;;;;;;1.10;1.10;;;17.00;70.60;;;;;;4968497;28;43952;-68
2021/12/31 00:13:49;;;;;;;0.90;0.90;;;17.00;70.50;;;;;;4961876;28;43398;-68
2021/12/31 00:16:17;;;;;;;0.77;0.77;;;17.20;70.20;;;;;;4968264;28;43765;-69
2021/12/31 00:18:45;;;;;;;1.00;1.00;;;17.30;69.60;;;;;;4962317;28;43481;-69
2021/12/31 00:21:14;;;;;;;0.93;0.93;;;17.50;69.20;;;;;;4961809;28;44014;-69
2021/12/31 00:23:45;;;;;;;0.80;0.80;;;17.60;68.70;;;;;;4960534;28;44790;-69
2021/12/31 00:26:12;;;;;;;1.00;1.00;;;17.60;68.40;;;;;;4968297;28;43911;-69
2021/12/31 00:28:40;;;;;;;0.90;0.90;;;17.60;68.40;;;;;;4968637;28;43552;-68
2021/12/31 00:31:09;;;;;;;0.90;0.90;;;17.50;68.60;;;;;;4967837;28;44925;-69
2021/12/31 00:33:37;;;;;;;1.00;1.00;;;17.40;68.80;;;;;;4982729;28;45674;-69
2021/12/31 00:36:05;;;;;;;1.00;1.00;;;17.40;69.20;;;;;;4966702;28;44026;-68
2021/12/31 00:38:34;;;;;;;0.90;0.90;;;17.30;69.40;;;;;;4968316;28;44178;-69
2021/12/31 00:41:02;;;;;;;0.93;0.93;;;17.20;69.50;;;;;;4967392;28;44022;-69
2021/12/31 00:43:30;;;;;;;0.90;0.90;;;17.20;69.80;;;;;;4967273;28;43469;-68
2021/12/31 00:45:58;;;;;;;0.80;0.80;;;17.10;69.80;;;;;;4967641;28;43880;-68
2021/12/31 00:48:26;;;;;;;0.70;0.70;;;17.10;69.90;;;;;;4967808;28;43513;-69
2021/12/31 00:50:54;;;;;;;0.90;0.90;;;17.10;70.20;;;;;;4967278;28;43842;-69
2021/12/31 00:53:22;;;;;;;0.87;0.87;;;17.10;70.20;;;;;;4982319;28;46325;-69
2021/12/31 00:55:51;;;;;;;0.90;0.90;;;17.20;69.80;;;;;;4967749;28;44058;-69
2021/12/31 00:58:19;;;;;;;0.80;0.80;;;17.30;69.40;;;;;;4968193;28;43807;-69
2021/12/31 01:00:47;;;;;;;0.90;0.90;;;17.30;69.10;;;;;;4967313;28;43987;-68
2021/12/31 01:03:17;;;;;;;0.90;0.90;;;17.30;69.10;;;;;;4967706;28;44079;-70
2021/12/31 01:05:45;;;;;;;1.00;1.00;;;17.30;69.30;;;;;;4967591;28;43449;-69
2021/12/31 01:08:13;;;;;;;0.90;0.90;;;17.20;69.50;;;;;;4967967;28;43947;-69
2021/12/31 01:10:40;;;;;;;0.70;0.70;;;17.10;69.60;;;;;;4967465;28;44027;-68
2021/12/31 01:13:15;;;;;;;1.00;1.00;;;17.10;69.90;;;;;;4967526;28;43453;-69
2021/12/31 01:15:46;;;;;;;0.73;0.73;;;17.10;70.00;;;;;;4967545;28;43422;-69
2021/12/31 01:18:27;;;;;;;0.90;0.90;;;17.00;70.10;;;;;;4968136;28;43942;-68
2021/12/31 01:20:55;;;;;;;0.90;0.90;;;17.00;70.90;;;;;;4967549;28;43654;-69
2021/12/31 01:23:23;;;;;;;0.90;0.90;;;17.00;70.30;;;;;;4967378;28;43925;-69
2021/12/31 01:25:51;;;;;;;0.70;0.70;;;17.00;70.40;;;;;;4965342;28;44099;-69
2021/12/31 01:28:22;;;;;;;0.67;0.67;;;16.90;70.50;;;;;;4967394;28;44019;-69
2021/12/31 01:30:50;;;;;;;0.87;0.87;;;17.00;70.60;;;;;;4966865;28;44066;-69
2021/12/31 01:33:18;;;;;;;0.80;0.80;;;17.10;70.20;;;;;;4981815;28;45286;-69
2021/12/31 01:35:46;;;;;;;0.80;0.80;;;17.30;69.80;;;;;;4967139;28;43824;-69
2021/12/31 01:38:15;;;;;;;0.73;0.73;;;17.40;69.10;;;;;;4967756;28;43593;-68
2021/12/31 01:40:43;;;;;;;0.70;0.70;;;17.60;68.80;;;;;;4965199;28;47136;-68
2021/12/31 01:43:12;;;;;;;0.90;0.90;;;17.60;68.40;;;;;;4981682;28;45184;-68
2021/12/31 01:45:46;;;;;;;0.80;0.80;;;17.60;68.50;;;;;;4967011;28;44033;-69
2021/12/31 01:48:25;;;;;;;1.00;1.00;;;17.50;68.70;;;;;;4971052;28;43962;-69
2021/12/31 01:50:53;;;;;;;0.70;0.70;;;17.40;68.90;;;;;;4970630;28;43973;-69
2021/12/31 01:53:23;;;;;;;0.87;0.87;;;17.30;69.10;;;;;;4970595;28;44140;-69
2021/12/31 01:55:51;;;;;;;0.80;0.80;;;17.30;69.40;;;;;;4970348;28;44071;-69
2021/12/31 01:58:22;;;;;;;0.80;0.80;;;17.20;69.60;;;;;;4970631;28;43994;-70
2021/12/31 02:00:51;;;;;;;0.80;0.80;;;17.10;69.70;;;;;;4969944;28;45046;-69
2021/12/31 02:03:19;;;;;;;0.70;0.70;;;17.10;69.90;;;;;;4985055;28;44029;-68
2021/12/31 02:05:47;;;;;;;0.80;0.80;;;17.10;70.10;;;;;;4968884;28;43908;-69
2021/12/31 02:08:16;;;;;;;0.80;0.77;;;17.10;70.30;;;;;;4970688;28;44260;-68
2021/12/31 02:10:43;;;;;;;0.90;0.90;;;17.20;70.10;;;;;;4970064;28;44992;-69
2021/12/31 02:13:11;;;;;;;1.07;0.80;;;17.30;69.70;;;;;;4970275;28;44016;-68
2021/12/31 02:15:39;;;;;;;0.90;0.90;;;17.30;69.40;;;;;;4970141;28;43872;-69
2021/12/31 02:18:09;;;;;;;0.90;0.90;;;17.30;69.30;;;;;;4972749;28;44190;-69
2021/12/31 02:20:41;;;;;;;0.80;0.80;;;17.30;69.40;;;;;;4970475;28;43911;-69
2021/12/31 02:23:14;;;;;;;0.93;0.93;;;17.20;70.30;;;;;;4970406;28;43970;-69
2021/12/31 02:25:42;;;;;;;0.80;0.80;;;17.20;69.80;;;;;;4970166;28;44005;-69
2021/12/31 02:28:10;;;;;;;0.80;0.80;;;17.10;69.90;;;;;;4985055;28;43913;-69
2021/12/31 02:30:38;;;;;;;0.80;0.80;;;17.10;70.10;;;;;;4984744;28;45993;-68
2021/12/31 02:33:06;;;;;;;0.70;0.70;;;17.10;70.30;;;;;;4970118;28;44136;-69
2021/12/31 02:35:34;;;;;;;0.90;0.90;;;17.00;70.30;;;;;;4970148;28;43525;-68
2021/12/31 02:38:04;;;;;;;0.90;0.90;;;17.00;70.30;;;;;;4970305;28;43980;-69
2021/12/31 02:40:32;;;;;;;0.63;0.63;;;17.00;70.40;;;;;;4969625;28;44006;-69
2021/12/31 02:43:01;;;;;;;0.90;0.90;;;17.00;70.50;;;;;;4969776;28;44048;-69
2021/12/31 02:45:31;;;;;;;0.80;0.80;;;17.00;70.70;;;;;;4969468;28;43807;-69
2021/12/31 02:48:02;;;;;;;0.80;0.80;;;17.10;70.50;;;;;;4970304;28;43888;-69
2021/12/31 02:50:33;;;;;;;0.70;0.70;;;17.20;70.00;;;;;;4969564;28;43921;-68
2021/12/31 02:53:03;;;;;;;0.80;0.80;;;17.40;69.60;;;;;;4969718;28;43982;-68
2021/12/31 02:55:31;;;;;;;0.70;0.70;;;17.50;69.00;;;;;;4969468;28;43814;-69
2021/12/31 02:57:59;;;;;;;0.90;0.90;;;17.60;68.60;;;;;;4968983;28;44009;-69
2021/12/31 03:00:28;;;;;;;0.83;0.83;;;17.60;68.50;;;;;;4969155;28;43778;-69
2021/12/31 03:02:56;;;;;;;0.90;0.90;;;17.50;68.60;;;;;;4969771;28;44295;-68
2021/12/31 03:05:24;;;;;;;0.80;0.80;;;17.50;69.00;;;;;;4982703;28;44016;-69
2021/12/31 03:07:52;;;;;;;0.80;0.80;;;17.40;69.20;;;;;;4969858;28;44065;-68
2021/12/31 03:10:21;;;;;;;0.90;0.90;;;17.30;69.40;;;;;;4969368;28;43958;-69
2021/12/31 03:12:50;;;;;;;0.80;0.80;;;17.20;69.60;;;;;;4969209;28;44091;-69
2021/12/31 03:15:18;;;;;;;0.80;0.80;;;17.20;69.80;;;;;;4969115;28;44088;-68
2021/12/31 03:17:45;;;;;;;0.73;0.73;;;17.10;69.90;;;;;;4969638;28;43822;-68
2021/12/31 03:20:25;;;;;;;0.70;0.70;;;17.10;70.00;;;;;;4967691;28;44887;-68
2021/12/31 03:22:53;;;;;;;1.03;1.03;;;17.00;70.20;;;;;;4963013;28;43400;-69
2021/12/31 03:25:22;;;;;;;0.60;0.60;;;17.10;70.30;;;;;;4962844;28;44022;-68
2021/12/31 03:27:50;;;;;;;0.77;0.77;;;17.30;69.90;;;;;;4963326;28;44042;-69
2021/12/31 03:30:18;;;;;;;0.77;0.77;;;17.30;69.50;;;;;;4962862;28;43987;-69
2021/12/31 03:32:46;;;;;;;0.83;0.83;;;17.30;69.30;;;;;;4962781;28;43989;-67
2021/12/31 03:35:14;;;;;;;0.77;0.77;;;17.30;69.30;;;;;;4963098;28;44060;-69
2021/12/31 03:37:42;;;;;;;0.67;0.67;;;17.30;69.60;;;;;;4962873;28;43907;-69
2021/12/31 03:40:11;;;;;;;0.90;0.90;;;17.20;69.70;;;;;;4962697;28;43986;-68
2021/12/31 03:42:41;;;;;;;0.97;0.97;;;17.10;69.80;;;;;;4962828;28;44006;-69
2021/12/31 03:45:10;;;;;;;0.77;0.77;;;17.10;70.10;;;;;;4968680;28;43974;-68
2021/12/31 03:47:38;;;;;;;0.60;0.60;;;17.00;70.20;;;;;;4968834;28;43986;-69
2021/12/31 03:50:07;;;;;;;0.70;0.70;;;17.00;70.30;;;;;;4968984;28;44050;-69
2021/12/31 03:52:37;;;;;;;0.80;0.80;;;17.00;70.40;;;;;;4969113;28;43824;-70
2021/12/31 03:55:06;;;;;;;0.83;0.83;;;17.00;70.60;;;;;;4969222;28;44002;-68
2021/12/31 03:57:34;;;;;;;0.83;0.83;;;17.00;70.60;;;;;;4969031;28;43970;-69
2021/12/31 04:00:04;;;;;;;0.80;0.80;;;16.90;70.70;;;;;;4966617;28;46272;-68
2021/12/31 04:02:32;;;;;;;0.80;0.80;;;17.00;70.80;;;;;;4953777;28;44460;-69
2021/12/31 04:05:00;;;;;;;0.80;0.80;;;17.10;70.30;;;;;;4949563;28;43960;-69
2021/12/31 04:07:28;;;;;;;0.90;0.90;;;17.30;69.80;;;;;;4949822;28;43593;-69
2021/12/31 04:09:56;;;;;;;0.70;0.70;;;17.40;69.20;;;;;;4949145;28;43933;-69
2021/12/31 04:12:24;;;;;;;0.80;0.80;;;17.50;68.70;;;;;;4949433;28;43932;-69
2021/12/31 04:14:52;;;;;;;0.70;0.70;;;17.60;68.60;;;;;;4949452;28;43789;-68
2021/12/31 04:17:21;;;;;;;0.90;0.90;;;17.60;68.60;;;;;;4950828;28;44208;-69
2021/12/31 04:19:54;;;;;;;0.83;0.83;;;17.50;68.70;;;;;;4966833;28;45758;-69
2021/12/31 04:22:24;;;;;;;0.70;0.70;;;17.40;68.90;;;;;;4968398;28;43950;-69
2021/12/31 04:24:53;;;;;;;0.80;0.80;;;17.40;69.20;;;;;;4968198;28;43951;-69
2021/12/31 04:27:22;;;;;;;0.80;0.80;;;17.30;69.30;;;;;;4968598;28;43606;-69
2021/12/31 04:29:53;;;;;;;0.73;0.73;;;17.20;69.50;;;;;;4968197;28;43983;-69
2021/12/31 04:32:23;;;;;;;0.73;0.73;;;17.20;69.70;;;;;;4968365;28;44151;-68
2021/12/31 04:34:51;;;;;;;0.90;0.90;;;17.20;70.00;;;;;;4968197;28;43957;-68
2021/12/31 04:37:19;;;;;;;0.80;0.80;;;17.10;70.00;;;;;;4982769;28;43925;-69
2021/12/31 04:39:47;;;;;;;0.90;0.90;;;17.10;70.20;;;;;;4967547;28;44050;-69
2021/12/31 04:42:15;;;;;;;0.70;0.70;;;17.20;70.00;;;;;;4982443;28;45026;-69
2021/12/31 04:44:43;;;;;;;0.77;0.77;;;17.30;69.60;;;;;;4967720;28;43991;-69
2021/12/31 04:47:11;;;;;;;0.90;0.90;;;17.40;69.30;;;;;;4968127;28;44065;-69
2021/12/31 04:49:40;;;;;;;0.80;0.80;;;17.40;69.20;;;;;;4967828;28;44184;-68
2021/12/31 04:52:08;;;;;;;0.73;0.73;;;17.40;69.30;;;;;;4967996;28;44130;-68
2021/12/31 04:54:36;;;;;;;0.70;0.70;;;17.30;69.40;;;;;;4968213;28;44118;-68
2021/12/31 04:57:05;;;;;;;0.80;0.80;;;17.20;69.60;;;;;;4968468;28;43847;-69
2021/12/31 04:59:33;;;;;;;0.80;0.80;;;17.20;69.80;;;;;;4967494;28;44066;-69
2021/12/31 05:02:00;;;;;;;0.77;0.77;;;17.10;70.00;;;;;;4967262;28;44112;-69
2021/12/31 05:04:29;;;;;;;0.80;0.80;;;17.10;70.10;;;;;;4967853;28;43907;-69
2021/12/31 05:06:58;;;;;;;0.80;0.80;;;17.10;71.00;;;;;;4966611;28;44243;-69
2021/12/31 05:09:26;;;;;;;0.70;0.70;;;17.00;70.30;;;;;;4967468;28;44034;-69
2021/12/31 05:11:54;;;;;;;0.80;0.80;;;17.00;70.40;;;;;;4967455;28;43826;-68
2021/12/31 05:14:22;;;;;;;0.97;0.97;;;17.00;70.40;;;;;;4967521;28;43994;-69
2021/12/31 05:16:50;;;;;;;0.90;0.90;;;17.00;70.70;;;;;;4967913;28;43441;-68
2021/12/31 05:19:18;;;;;;;0.73;0.73;;;17.10;70.60;;;;;;4967515;28;43938;-69
2021/12/31 05:21:46;;;;;;;0.70;0.70;;;17.20;70.20;;;;;;4966798;28;43884;-68
2021/12/31 05:24:16;;;;;;;0.77;0.77;;;17.40;69.80;;;;;;4967439;28;43998;-68
2021/12/31 05:26:44;;;;;;;0.90;0.90;;;17.50;69.10;;;;;;4967567;28;43847;-69
2021/12/31 05:29:12;;;;;;;0.90;0.90;;;17.60;68.70;;;;;;4967118;28;43907;-68
2021/12/31 05:31:40;;;;;;;0.90;0.90;;;17.60;68.50;;;;;;4967285;28;44067;-68
2021/12/31 05:34:08;;;;;;;1.00;1.00;;;17.60;68.70;;;;;;4967608;28;44015;-69
2021/12/31 05:36:35;;;;;;;1.13;1.00;;;17.50;68.80;;;;;;4967744;28;43971;-69
2021/12/31 05:39:03;;;;;;;1.10;1.10;;;17.40;69.10;;;;;;4981868;28;45733;-68
2021/12/31 05:41:34;;;;;;;3.57;1.50;;;17.30;69.30;;;;;;4966696;28;44006;-69
2021/12/31 05:44:02;;;;;;;1.33;1.30;;;17.20;69.60;;;;;;4970680;28;43956;-69
2021/12/31 05:46:30;;;;;;;2.97;1.90;;;17.20;69.80;;;;;;4953128;28;43958;-68
2021/12/31 05:48:58;;;;;;;2.20;2.10;;;17.20;70.00;;;;;;4966566;28;43625;-69
2021/12/31 05:51:27;;;;;;;3.23;1.87;;;17.10;70.10;;;;;;4966647;28;43393;-68
2021/12/31 05:53:55;;;;;;;3.87;2.63;;;17.10;70.30;;;;;;4966712;28;43955;-68
2021/12/31 05:56:23;;;;;;;3.43;2.57;;;17.10;70.40;;;;;;4966901;28;44177;-69
2021/12/31 05:58:53;;;;;;;4.90;2.90;;;17.20;70.00;;;;;;4966290;28;43977;-69
2021/12/31 06:01:20;;;;;;;4.67;2.97;;;17.30;69.60;;;;;;4965884;28;43986;-70
2021/12/31 06:03:49;;;;;;;4.60;3.20;;;17.40;69.50;;;;;;4966700;28;43982;-69
2021/12/31 06:06:17;;;;;;;5.73;3.33;;;17.40;69.40;;;;;;4966961;28;43808;-69
2021/12/31 06:08:45;;;;;;;5.03;3.00;;;17.30;69.40;;;;;;4961027;28;44980;-69
2021/12/31 06:11:13;;;;;;;3.83;2.97;;;17.30;69.60;;;;;;4947654;28;43924;-69
2021/12/31 06:13:42;;;;;;;2.90;2.63;;;17.20;69.70;;;;;;4947857;28;43836;-68
2021/12/31 06:16:12;;;;;;;4.60;3.40;;;17.20;69.90;;;;;;4948162;28;44305;-68
2021/12/31 06:18:40;;;;;;;7.67;3.50;;;17.10;70.00;;;;;;4947404;28;43875;-68
2021/12/31 06:21:08;;;;;;;4.27;3.47;;;17.10;70.10;;;;;;4946775;28;43984;-68
2021/12/31 06:23:36;;;;;;;5.13;3.37;;;17.10;70.40;;;;;;4947939;28;44140;-68
2021/12/31 06:26:24;;;;;;;6.07;3.90;;;17.00;71.10;;;;;;4948197;28;43937;-68
2021/12/31 06:28:52;;;;;;;6.03;3.53;;;17.00;70.40;;;;;;4947459;28;43776;-68
2021/12/31 06:31:21;;;;;;;7.00;3.70;;;17.00;70.60;;;;;;4947507;28;44017;-69
2021/12/31 06:33:49;;;;;;;6.13;3.63;;;17.00;70.80;;;;;;4948781;28;44046;-69
2021/12/31 06:36:19;;;;;;;7.67;3.87;;;17.10;70.50;;;;;;4951384;28;43931;-68
2021/12/31 06:38:47;;;;;;;5.10;3.20;;;17.30;70.10;;;;;;4950461;28;44837;-69
2021/12/31 06:41:16;;;;;;;7.37;3.90;;;17.40;69.50;;;;;;4950666;28;43907;-68
2021/12/31 06:43:44;;;;;;;5.70;3.90;;;17.60;69.00;;;;;;4949370;28;43985;-69
2021/12/31 06:46:12;;;;;;;7.60;3.77;;;17.70;68.70;;;;;;4951035;28;43529;-68
2021/12/31 06:48:41;;;;;;;7.37;4.17;;;17.60;68.50;;;;;;4950444;28;43600;-69
2021/12/31 06:51:10;;;;;;;5.20;3.70;;;17.50;68.70;;;;;;4950553;28;43354;-69
2021/12/31 06:53:38;;;;;;;4.13;3.30;;;17.50;69.00;;;;;;4950895;28;43942;-68
2021/12/31 06:56:06;;;;;;;6.73;4.03;;;17.40;69.20;;;;;;4949844;28;43971;-69
2021/12/31 06:58:34;;;;;;;4.37;3.17;;;17.30;69.40;;;;;;4950590;28;43906;-69
2021/12/31 07:01:02;;;;;;;5.13;3.40;;;17.30;69.70;;;;;;4949670;28;44085;-68
2021/12/31 07:03:31;;;;;;;5.90;3.97;;;17.20;69.80;;;;;;4949387;28;43988;-69
2021/12/31 07:06:00;;;;;;;5.10;3.43;;;17.20;70.00;;;;;;4950887;28;43516;-69
2021/12/31 07:08:28;;;;;;;4.00;3.60;;;17.10;70.80;;;;;;4950271;28;43960;-69
2021/12/31 07:10:56;;;;;;;4.63;3.40;;;17.10;70.40;;;;;;4950222;28;43960;-68
2021/12/31 07:13:24;;;;;;;7.10;3.70;;;17.20;70.40;;;;;;4950352;28;43405;-68
2021/12/31 07:15:51;;;;;;;6.73;3.87;;;17.30;69.90;;;;;;4949268;28;43581;-69
2021/12/31 07:18:21;;;;;;;6.60;3.80;;;17.30;69.50;;;;;;4949930;28;44081;-69
2021/12/31 07:20:49;;;;;;;6.27;3.97;;;17.40;69.40;;;;;;4949681;28;43895;-68
2021/12/31 07:23:19;;;;;;;5.37;3.37;;;17.30;69.40;;;;;;4950010;28;43935;-68
2021/12/31 07:25:47;;;;;;;4.20;3.50;;;17.30;69.60;;;;;;4950575;28;43458;-69
2021/12/31 07:28:15;;;;;;;5.77;3.37;;;17.20;69.60;;;;;;4949532;28;45026;-69
2021/12/31 07:30:44;;;;;;;4.57;3.37;;;17.20;69.90;;;;;;4949603;28;44110;-69
2021/12/31 07:33:15;;;;;;;4.07;3.43;;;17.10;69.90;;;;;;4949750;28;44002;-68
2021/12/31 07:35:42;;;;;;;4.37;3.67;;;17.10;70.10;;;;;;4950172;28;43960;-69
2021/12/31 07:38:18;;;;;;;7.50;4.53;;;17.10;70.30;;;;;;4949295;28;44865;-69
2021/12/31 07:40:47;;;;;;;4.67;3.70;;;17.10;70.40;;;;;;4949650;28;43904;-69
2021/12/31 07:43:15;;;;;;;4.33;3.63;;;17.10;70.40;;;;;;4949497;28;43482;-69
2021/12/31 07:45:43;;;;;;;4.93;3.70;;;17.10;70.50;;;;;;4949097;28;44273;-68
2021/12/31 07:48:11;;;;;;;5.87;3.30;;;17.00;70.60;;;;;;4949305;28;44772;-68
2021/12/31 07:50:39;;;;;;;3.27;3.03;;;17.10;70.60;;;;;;4949356;28;44132;-68
2021/12/31 07:53:07;;;;;;;4.53;3.60;;;17.20;70.30;;;;;;4949680;28;43381;-69
2021/12/31 07:55:35;;;;;;;6.40;3.50;;;17.40;69.90;;;;;;4949768;28;44260;-68
2021/12/31 07:58:05;;;;;;;3.80;3.20;;;17.50;69.30;;;;;;4949445;28;44051;-69
2021/12/31 08:00:33;;;;;;;4.30;3.60;;;17.60;68.80;;;;;;4967940;28;43439;-68
2021/12/31 08:03:01;;;;;;;4.20;3.30;;;17.60;68.50;;;;;;4962225;28;44038;-69
2021/12/31 08:05:30;;;;;;;4.83;3.30;;;17.60;68.50;;;;;;4973866;28;43914;-69
2021/12/31 08:07:59;;;;;;;6.00;3.77;;;17.50;68.70;;;;;;4961908;28;45133;-68
2021/12/31 08:10:27;;;;;;;4.83;3.30;;;17.50;69.10;;;;;;4961955;28;43890;-68
2021/12/31 08:13:16;;;;;;;3.40;3.20;;;17.40;69.20;;;;;;4964993;28;43931;-69
2021/12/31 08:15:44;;;;;;;4.80;3.40;;;17.30;69.40;;;;;;4968362;28;43970;-68
2021/12/31 08:18:12;;;;;;;4.00;3.23;;;17.30;69.70;;;;;;4968004;28;43964;-68
2021/12/31 08:20:40;;;;;;;4.77;3.57;;;17.20;69.80;;;;;;4968034;28;43890;-70
2021/12/31 08:23:09;;;;;;;5.67;3.87;;;17.20;70.00;;;;;;4968326;28;43992;-69
2021/12/31 08:25:37;;;;;;;4.50;3.70;;;17.10;70.10;;;;;;4968504;28;43589;-69
2021/12/31 08:28:05;;;;;;;4.60;3.30;;;17.10;70.40;;;;;;4967972;28;43981;-69
2021/12/31 08:30:35;;;;;;;4.23;3.60;;;17.20;70.30;;;;;;4967753;28;44091;-69
2021/12/31 08:33:03;;;;;;;5.57;3.70;;;17.30;70.00;;;;;;4968037;28;43368;-69
2021/12/31 08:35:31;;;;;;;3.83;3.10;;;17.30;69.60;;;;;;4968130;28;43661;-68
2021/12/31 08:37:58;;;;;;;4.30;3.50;;;17.40;69.60;;;;;;4967678;28;43998;-69
2021/12/31 08:40:27;;;;;;;3.57;3.27;;;17.30;69.60;;;;;;4967612;28;44059;-69
2021/12/31 08:42:55;;;;;;;3.70;3.10;;;17.30;69.70;;;;;;4968051;28;43986;-69
2021/12/31 08:45:31;;;;;;;3.80;3.40;;;17.30;69.90;;;;;;4968106;28;44260;-69
2021/12/31 08:48:01;;;;;;;4.13;3.20;;;17.20;70.00;;;;;;4982311;28;44154;-70
2021/12/31 08:50:29;;;;;;;3.17;2.90;;;17.10;70.10;;;;;;4967256;28;43836;-69
2021/12/31 08:52:57;;;;;;;3.03;2.83;;;17.10;70.30;;;;;;4967353;28;43993;-69
2021/12/31 08:55:25;;;;;;;3.33;3.03;;;17.10;70.40;;;;;;4982038;28;44362;-69
2021/12/31 08:57:52;;;;;;;3.30;3.10;;;17.10;70.50;;;;;;4966721;28;43991;-68
2021/12/31 09:00:20;;;;;;;3.17;2.97;;;17.10;70.60;;;;;;4981693;28;46415;-69
2021/12/31 09:02:50;;;;;;;4.10;3.07;;;17.00;70.60;;;;;;4967118;28;43949;-69
2021/12/31 09:05:19;;;;;;;6.70;3.80;;;17.00;70.70;;;;;;4966118;28;43894;-69
2021/12/31 09:07:47;;;;;;;3.63;3.30;;;17.10;70.80;;;;;;4981823;28;46221;-69
2021/12/31 09:10:20;;;;;;;3.07;2.73;;;17.20;70.50;;;;;;4966990;28;43303;-70
2021/12/31 09:12:48;;;;;;;3.87;3.50;;;17.40;70.00;;;;;;4966926;28;44070;-69
2021/12/31 09:15:16;;;;;;;3.40;3.10;;;17.50;69.40;;;;;;4967103;28;43620;-70
2021/12/31 09:17:44;;;;;;;3.07;2.73;;;17.60;68.90;;;;;;4966687;28;44046;-69
2021/12/31 09:20:12;;;;;;;3.47;3.17;;;17.60;68.70;;;;;;4966865;28;44075;-70
2021/12/31 09:22:41;;;;;;;3.40;3.10;;;17.60;68.70;;;;;;4967106;28;43524;-68
2021/12/31 09:25:09;;;;;;;3.93;2.97;;;17.50;68.80;;;;;;4960989;28;43815;-68
2021/12/31 09:27:37;;;;;;;3.07;2.83;;;17.40;69.10;;;;;;4960870;28;43943;-69
2021/12/31 09:30:07;;;;;;;3.93;3.63;;;17.40;69.40;;;;;;4960747;28;44469;-69
2021/12/31 09:32:35;;;;;;;3.27;2.90;;;17.30;69.60;;;;;;4959708;28;43976;-69
2021/12/31 09:35:02;;;;;;;2.80;2.60;;;17.30;69.80;;;;;;4961213;28;44110;-69
2021/12/31 09:37:30;;;;;;;3.07;2.87;;;17.20;69.90;;;;;;4960613;28;44866;-69
2021/12/31 09:40:00;;;;;;;2.97;2.77;;;17.20;70.10;;;;;;4959121;28;46349;-69
2021/12/31 09:42:28;;;;;;;3.20;2.90;;;17.10;70.10;;;;;;4960814;28;43560;-69
2021/12/31 09:44:56;;;;;;;5.10;3.50;;;17.10;70.40;;;;;;4967076;28;44136;-69
2021/12/31 09:47:23;;;;;;;3.07;2.77;;;17.20;70.30;;;;;;4966619;28;44161;-69
2021/12/31 09:49:51;;;;;;;2.83;2.63;;;17.40;70.00;;;;;;4981007;28;43986;-68
2021/12/31 09:52:19;;;;;;;3.20;3.00;;;17.50;70.20;;;;;;4966320;28;43870;-69
2021/12/31 09:54:48;;;;;;;3.00;2.80;;;17.70;69.10;;;;;;4981749;28;44054;-69
2021/12/31 09:57:18;;;;;;;3.53;3.23;;;17.80;68.40;;;;;;4966615;28;43967;-69
2021/12/31 09:59:47;;;;;;;3.10;2.87;;;18.00;68.00;;;;;;4966137;28;43998;-68
2021/12/31 10:02:15;;;;;;;2.80;2.60;;;18.20;67.50;;;;;;4966068;28;43892;-70
2021/12/31 10:04:54;;;;;;;3.03;2.80;;;18.30;66.90;;;;;;4966937;28;44260;-69
2021/12/31 10:07:23;;;;;;;3.17;2.97;;;18.40;66.60;;;;;;4967081;28;44115;-69
2021/12/31 10:10:11;;;;;;;3.50;2.73;;;18.50;66.30;;;;;;4969762;28;43953;-69
2021/12/31 10:12:48;;;;;;;2.97;2.77;;;18.50;66.20;;;;;;4970128;28;43899;-68
2021/12/31 10:15:17;;;;;;;3.30;2.60;;;18.40;66.40;;;;;;4985206;28;43966;-69
2021/12/31 10:17:45;;;;;;;2.70;2.60;;;18.30;66.60;;;;;;4963503;28;44094;-69
2021/12/31 10:20:13;;;;;;;2.47;2.37;;;18.10;67.00;;;;;;4963545;28;44003;-69
2021/12/31 10:22:41;;;;;;;2.63;2.50;;;17.90;67.50;;;;;;4963692;28;43496;-69
2021/12/31 10:25:22;;;;;;;3.07;2.87;;;17.80;67.90;;;;;;4964071;28;43888;-69
2021/12/31 10:27:52;;;;;;;3.20;3.00;;;17.70;68.30;;;;;;4969827;28;43992;-68
2021/12/31 10:30:23;;;;;;;2.83;2.60;;;17.60;68.70;;;;;;4969675;28;43429;-69
2021/12/31 10:32:52;;;;;;;2.77;2.50;;;17.50;69.00;;;;;;4969988;28;43459;-69
2021/12/31 10:35:21;;;;;;;2.70;2.50;;;17.50;69.40;;;;;;4970092;28;44152;-69
2021/12/31 10:37:50;;;;;;;2.87;2.67;;;17.50;69.40;;;;;;4969478;28;45511;-68
2021/12/31 10:40:28;;;;;;;2.63;2.43;;;17.60;69.20;;;;;;4969327;28;44037;-68
2021/12/31 10:43:11;;;;;;;2.57;2.47;;;17.60;69.00;;;;;;4969720;28;43986;-68
2021/12/31 10:45:39;;;;;;;2.73;2.53;;;17.50;68.80;;;;;;4969865;28;43769;-68
2021/12/31 10:48:09;;;;;;;2.60;2.40;;;17.50;69.00;;;;;;4968170;28;45797;-69
2021/12/31 10:50:37;;;;;;;2.67;2.57;;;17.40;69.20;;;;;;4962015;28;45130;-69
2021/12/31 10:53:11;;;;;;;2.67;2.57;;;17.40;69.40;;;;;;4963490;28;43373;-68
2021/12/31 10:55:40;;;;;;;2.23;2.13;;;17.30;69.60;;;;;;4965539;28;43613;-69
2021/12/31 10:58:11;;;;;;;3.00;2.70;;;17.30;69.80;;;;;;4950184;28;44023;-69
2021/12/31 11:00:40;;;;;;;2.80;2.60;;;17.20;69.90;;;;;;4950144;28;44159;-68
2021/12/31 11:03:08;;;;;;;2.80;2.60;;;17.20;70.00;;;;;;4950574;28;43895;-69
2021/12/31 11:05:37;;;;;;;2.70;2.50;;;17.20;70.20;;;;;;4950714;28;44158;-69
2021/12/31 11:08:07;;;;;;;2.50;2.30;;;17.20;70.20;;;;;;4950224;28;43619;-68
2021/12/31 11:10:40;;;;;;;2.60;2.50;;;17.10;70.40;;;;;;4950159;28;43970;-70
2021/12/31 11:13:13;;;;;;;3.07;2.77;;;17.20;70.40;;;;;;4950328;28;43971;-70
2021/12/31 11:15:41;;;;;;;2.27;2.17;;;17.30;70.00;;;;;;4950535;28;43364;-68
2021/12/31 11:18:11;;;;;;;2.37;2.27;;;17.50;69.70;;;;;;4949734;28;44083;-68
2021/12/31 11:20:40;;;;;;;2.20;2.10;;;17.60;69.10;;;;;;4948939;28;43774;-69
2021/12/31 11:23:08;;;;;;;2.60;2.50;;;17.70;68.80;;;;;;4950101;28;43888;-69
2021/12/31 11:25:51;;;;;;;2.23;2.10;;;17.70;68.70;;;;;;4950351;28;44050;-69
2021/12/31 11:28:28;;;;;;;2.90;2.60;;;17.60;68.60;;;;;;4949871;28;44028;-69
2021/12/31 11:30:57;;;;;;;2.37;2.27;;;17.50;68.80;;;;;;4963019;28;43947;-68
2021/12/31 11:33:26;;;;;;;2.50;2.40;;;17.50;69.10;;;;;;4968681;28;43884;-68
2021/12/31 11:35:59;;;;;;;2.30;2.20;;;17.40;69.30;;;;;;4969045;28;43580;-69
2021/12/31 11:38:44;;;;;;;2.43;2.33;;;17.30;69.50;;;;;;4968584;28;44126;-68
2021/12/31 11:41:13;;;;;;;2.70;2.60;;;17.30;69.70;;;;;;4968466;28;43965;-69
2021/12/31 11:43:42;;;;;;;2.30;2.20;;;17.20;69.80;;;;;;4967093;28;44047;-68
2021/12/31 11:46:44;;;;;;;2.20;2.10;;;17.20;70.00;;;;;;4968832;28;44209;-69
2021/12/31 11:49:20;;;;;;;2.67;2.57;;;17.20;70.30;;;;;;4968340;28;44910;-69
2021/12/31 11:52:01;;;;;;;2.60;2.50;;;17.30;70.00;;;;;;4968519;28;44012;-69
2021/12/31 11:54:30;;;;;;;2.53;2.30;;;17.40;69.80;;;;;;4968766;28;44081;-69
2021/12/31 11:57:05;;;;;;;2.50;2.40;;;17.40;69.50;;;;;;4968799;28;44023;-70
2021/12/31 11:59:43;;;;;;;2.20;2.10;;;17.40;69.50;;;;;;4968501;28;43762;-69
2021/12/31 12:02:15;;;;;;;2.17;2.07;;;17.30;69.50;;;;;;4962435;28;43996;-69
2021/12/31 12:05:03;;;;;;;2.10;2.00;;;17.30;69.80;;;;;;4968502;28;43472;-69
2021/12/31 12:07:35;;;;;;;2.17;2.07;;;17.20;69.90;;;;;;4968988;28;43931;-69
2021/12/31 12:10:19;;;;;;;2.40;2.20;;;17.20;70.10;;;;;;4983137;28;44198;-69
2021/12/31 12:12:51;;;;;;;2.17;2.10;;;17.20;70.30;;;;;;4962057;28;44034;-68
2021/12/31 12:15:33;;;;;;;1.80;1.80;;;17.20;70.30;;;;;;4962617;28;43896;-69
2021/12/31 12:18:05;;;;;;;2.30;2.20;;;17.10;70.40;;;;;;4968671;28;44046;-69
2021/12/31 12:20:40;;;;;;;1.90;1.80;;;17.10;70.50;;;;;;4968012;28;44809;-69
2021/12/31 12:23:16;;;;;;;2.13;2.03;;;17.10;70.60;;;;;;4968138;28;44024;-68
2021/12/31 12:25:43;;;;;;;2.30;2.20;;;17.10;70.80;;;;;;4968192;28;43512;-69
2021/12/31 12:28:12;;;;;;;2.20;2.10;;;17.20;70.60;;;;;;4968216;28;43616;-69
2021/12/31 12:30:47;;;;;;;2.10;2.00;;;17.30;70.20;;;;;;4966670;28;43953;-70
2021/12/31 12:33:21;;;;;;;2.43;2.33;;;17.40;69.80;;;;;;4967776;28;43891;-69
2021/12/31 12:35:49;;;;;;;2.00;1.90;;;17.60;69.30;;;;;;4960478;28;43959;-69
2021/12/31 12:38:19;;;;;;;2.00;2.00;;;17.60;68.90;;;;;;4967958;28;44063;-69
2021/12/31 12:40:49;;;;;;;2.10;2.00;;;17.60;68.80;;;;;;4967800;28;43771;-69
2021/12/31 12:43:18;;;;;;;2.03;1.93;;;17.50;68.90;;;;;;4967412;28;44026;-68
2021/12/31 12:45:50;;;;;;;1.90;1.80;;;17.50;69.20;;;;;;4967603;28;43417;-69
2021/12/31 12:48:18;;;;;;;2.00;1.90;;;17.40;69.40;;;;;;4967936;28;44077;-69
2021/12/31 12:50:50;;;;;;;1.90;1.90;;;17.40;69.70;;;;;;4967527;28;43993;-68
2021/12/31 12:53:25;;;;;;;2.20;2.10;;;17.30;69.80;;;;;;4967431;28;44138;-69
2021/12/31 12:56:02;;;;;;;2.37;2.27;;;17.20;70.00;;;;;;4967731;28;44038;-69
2021/12/31 12:58:30;;;;;;;2.10;2.00;;;17.20;70.20;;;;;;4968045;28;43907;-69
2021/12/31 13:01:03;;;;;;;2.13;2.07;;;17.10;70.20;;;;;;4966588;28;45156;-69